メインページ
METAR-TAF:

METAR-TAF

空港 :

シント・マールテン, オランダ領アンティル

プリンセス・ジュリアナ国際空港

緯度: 18-03N, 経度: 063-07W, 海抜: 4m

現時点の気象観測

当レポートは20分前の23:00(UTC)に作成
の風 7kt
気温 28°C
湿度 70%
気圧 1017 hPa
視程10km以上
高度2000ftの雲はほとんどない

METAR: TNCM 272300Z 08007KT 9999 FEW020 28/22 Q1017 A3004 NOSIG RMK LGT HZ ALQDS

時間: 19:20 (23:20 UTC)

予報

当レポートは5時間58分前の17:22(UTC)に作成
予報は27日の 18時(UTC)から 28日の 18時(UTC)まで有効
の風 12kt
視程: 10km
高度1800ftの雲は散在している
近辺でにわか雨

TAF: TNCM 271722Z 2718/2818 10012KT P6SM VCSH SCT018

4,000以上の空港の気象観測と天気予報(METAR報とTAF報)

利用可能な観測所は地図上に黄色い丸と赤い丸で示す。

丸の上にカーソルを重ねると観測所名を参照できる。

次にクリックすると気象観測と天気予報を参照できる。

マップの切り替え:黒色「×」印の緑ボタンをクリックして拡大、「-」印の緑ボタンをクリックして縮小、緑色の三角印をクリックして隣りの地図に切り替え


METAR-TAF: